Terminal Aerodrome Forecast
Issued by NWS

Home | Current Version | Previous Version | Text Only | Print | Product List | Glossary On
Versions: 1 2 3 4 5 6 7 8 9 10 11 12 13 14 15 16 17
000
FTUS43 KDLH 061958 AAA
TAFBRD
TAF AMD
KBRD 061958Z 0620/0718 24013G21KT P6SM SCT250
     FM062100 26013G22KT P6SM VCTS SCT100CB BKN200
     FM070000 32013G22KT P6SM SCT200
     FM070300 34010G18KT P6SM SKC
     FM071400 33010G18KT P6SM SKC=

USA.gov is the U.S. government's official web portal to all federal, state and local government web resources and services.